Time;durP1;ratioP1;P1;durP2;ratioP2;P2;SDS_P1;SDS_P2;PMS_P1;PMS_P2;Temp;Humidity;BMP_temperature;BMP_pressure;BME280_temperature;BME280_humidity;BME280_pressure;Samples;Min_cycle;Max_cycle;Signal;HPM_P1;HPM_P2
2021/10/28 00:12:14;;;;;;;9.98;6.05;;;;;;;0.29;100.00;93522.75;2110246;27;20023;-88
2021/10/28 00:13:16;;;;;;;8.20;5.75;;;;;;;0.36;100.00;93515.03;2107727;28;20020;-85
2021/10/28 00:14:19;;;;;;;8.32;6.20;;;;;;;0.28;100.00;93520.47;2104140;28;20024;-84
2021/10/28 00:15:36;;;;;;;7.45;5.70;;;;;;;0.29;100.00;93509.59;2111454;27;20097;-85
2021/10/28 00:16:37;;;;;;;9.52;5.95;;;;;;;0.22;100.00;93512.84;2118156;27;20036;-86
2021/10/28 00:18:48;;;;;;;9.05;6.32;;;;;;;0.27;100.00;93513.69;2115822;27;20717;-86
2021/10/28 00:19:49;;;;;;;10.88;6.18;;;;;;;0.24;100.00;93509.88;2116139;27;20027;-90
2021/10/28 00:20:54;;;;;;;7.13;5.65;;;;;;;0.20;100.00;93509.03;2107400;28;20042;-86
2021/10/28 00:21:55;;;;;;;6.88;5.57;;;;;;;0.24;100.00;93513.25;2100165;28;20064;-87
2021/10/28 00:22:57;;;;;;;8.05;5.90;;;;;;;0.24;100.00;93509.88;2115480;28;20364;-89
2021/10/28 00:24:01;;;;;;;9.18;5.88;;;;;;;0.18;100.00;93504.13;2099611;28;20480;-88
2021/10/28 00:25:03;;;;;;;9.80;5.93;;;;;;;0.15;100.00;93512.66;2107915;27;20051;-87
2021/10/28 00:26:04;;;;;;;9.60;5.57;;;;;;;0.13;100.00;93508.84;2107175;28;20579;-89
2021/10/28 00:27:05;;;;;;;6.43;5.38;;;;;;;0.16;100.00;93511.56;2113769;28;20101;-86
2021/10/28 00:28:07;;;;;;;10.95;5.35;;;;;;;0.23;100.00;93516.22;2115395;28;20015;-87
2021/10/28 00:29:14;;;;;;;8.73;5.68;;;;;;;0.17;100.00;93507.81;2098826;28;20107;-88
2021/10/28 00:30:17;;;;;;;6.93;5.80;;;;;;;0.12;100.00;93507.31;2107980;28;20077;-89
2021/10/28 00:31:18;;;;;;;8.43;6.28;;;;;;;0.15;100.00;93504.03;2107041;28;20057;-89
2021/10/28 00:32:19;;;;;;;10.52;5.38;;;;;;;0.04;100.00;93511.63;2102547;28;20061;-85
2021/10/28 00:33:20;;;;;;;7.80;5.10;;;;;;;0.07;100.00;93505.72;2102494;28;20450;-87
2021/10/28 00:34:21;;;;;;;7.03;4.40;;;;;;;0.07;100.00;93508.34;2111533;28;20024;-85
2021/10/28 00:35:22;;;;;;;7.28;4.75;;;;;;;0.07;100.00;93504.94;2106355;28;20523;-84
2021/10/28 00:36:24;;;;;;;6.72;5.20;;;;;;;0.09;100.00;93500.91;2106440;28;20035;-86
2021/10/28 00:37:25;;;;;;;6.82;4.40;;;;;;;0.11;100.00;93497.91;2123527;27;20368;-87
2021/10/28 00:38:27;;;;;;;5.60;4.38;;;;;;;0.06;100.00;93500.81;2107196;28;20032;-89
2021/10/28 00:39:28;;;;;;;9.75;4.88;;;;;;;-0.06;100.00;93512.91;2098790;28;20028;-88
2021/10/28 00:40:29;;;;;;;5.32;4.05;;;;;;;-0.08;100.00;93503.84;2106998;28;20020;-88
2021/10/28 00:41:30;;;;;;;4.43;4.03;;;;;;;0.01;100.00;93503.69;2114429;28;20027;-88
2021/10/28 00:42:31;;;;;;;4.35;3.70;;;;;;;0.06;100.00;93500.81;2098656;28;20024;-89
2021/10/28 00:43:34;;;;;;;5.07;4.38;;;;;;;0.09;100.00;93506.16;2107781;28;20028;-87
2021/10/28 00:44:34;;;;;;;4.10;3.70;;;;;;;0.04;100.00;93514.25;2107307;28;20461;-86
2021/10/28 00:45:40;;;;;;;5.22;4.40;;;;;;;0.11;100.00;93506.56;2114292;28;20115;-87
2021/10/28 00:46:41;;;;;;;4.22;3.83;;;;;;;0.08;100.00;93506.47;2108358;27;20089;-86
2021/10/28 00:47:42;;;;;;;3.63;3.33;;;;;;;0.03;100.00;93507.50;2115467;28;20027;-89
2021/10/28 00:48:45;;;;;;;4.45;4.05;;;;;;;-0.08;100.00;93507.25;2106990;28;20060;-87
2021/10/28 00:49:46;;;;;;;4.07;3.58;;;;;;;-0.08;100.00;93506.47;2115277;27;20518;-85
2021/10/28 00:50:53;;;;;;;5.20;4.13;;;;;;;-0.15;100.00;93509.69;2123898;27;20109;-85
2021/10/28 00:51:54;;;;;;;4.20;3.80;;;;;;;-0.08;100.00;93507.25;2099313;28;20025;-88
2021/10/28 00:52:55;;;;;;;4.45;4.05;;;;;;;-0.08;100.00;93507.25;2098786;28;20024;-87
2021/10/28 00:53:58;;;;;;;4.05;3.75;;;;;;;-0.01;100.00;93515.28;2114885;28;20054;-87
2021/10/28 00:54:59;;;;;;;5.82;4.10;;;;;;;0.00;100.00;93502.94;2099343;28;20048;-85
2021/10/28 00:56:04;;;;;;;13.88;5.05;;;;;;;0.00;100.00;93516.06;2106995;28;20032;-86
2021/10/28 00:57:06;;;;;;;5.25;4.70;;;;;;;-0.03;100.00;93508.84;2115651;27;20031;-87
2021/10/28 00:58:08;;;;;;;4.85;4.45;;;;;;;-0.09;100.00;93510.97;2115568;27;20016;-89
2021/10/28 00:59:10;;;;;;;5.30;4.78;;;;;;;0.02;100.00;93507.84;2114068;28;20015;-88
2021/10/28 01:00:12;;;;;;;5.32;4.82;;;;;;;0.06;100.00;93511.31;2107080;28;20018;-88
2021/10/28 01:01:13;;;;;;;5.85;4.40;;;;;;;0.11;100.00;93503.94;2095786;28;20107;-85
2021/10/28 01:02:14;;;;;;;7.20;4.93;;;;;;;0.09;100.00;93505.38;2090175;28;20025;-84
2021/10/28 01:03:15;;;;;;;8.82;4.63;;;;;;;0.22;100.00;93507.59;2092667;28;20028;-88
2021/10/28 01:04:16;;;;;;;5.97;4.78;;;;;;;0.22;100.00;93498.91;2098684;28;20020;-85
2021/10/28 01:05:21;;;;;;;6.03;4.75;;;;;;;0.19;100.00;93502.25;2099516;28;20017;-84
2021/10/28 01:06:23;;;;;;;6.00;5.40;;;;;;;0.19;100.00;93510.13;2099164;28;20028;-88
2021/10/28 01:07:24;;;;;;;4.70;4.30;;;;;;;0.07;100.00;93507.59;2106571;28;20031;-87
2021/10/28 01:08:28;;;;;;;6.82;5.47;;;;;;;0.09;100.00;93503.53;2106961;28;20566;-85
2021/10/28 01:09:29;;;;;;;15.18;5.22;;;;;;;0.27;100.00;93495.28;2114955;28;20027;-88
2021/10/28 01:10:31;;;;;;;8.38;5.43;;;;;;;0.15;100.00;93501.41;2105587;28;20032;-87
2021/10/28 01:11:32;;;;;;;7.18;5.55;;;;;;;0.08;100.00;93503.84;2099338;28;20027;-86
2021/10/28 01:12:33;;;;;;;11.05;5.53;;;;;;;0.11;100.00;93503.94;2101290;28;20035;-87
2021/10/28 01:13:36;;;;;;;8.70;6.10;;;;;;;0.20;100.00;93501.13;2091941;28;20017;-86
2021/10/28 01:14:45;;;;;;;6.10;5.50;;;;;;;0.28;100.00;93507.31;2098583;28;20021;-90
2021/10/28 01:15:47;;;;;;;6.38;5.05;;;;;;;0.37;100.00;93503.41;2099400;28;20119;-84
2021/10/28 01:16:54;;;;;;;12.05;5.80;;;;;;;0.28;100.00;93510.72;2089979;28;20032;-85
2021/10/28 01:17:54;;;;;;;7.78;5.90;;;;;;;0.28;100.00;93502.06;2102127;28;20150;-86
2021/10/28 01:18:56;;;;;;;10.82;5.10;;;;;;;0.37;100.00;93507.91;2101926;28;20020;-85
2021/10/28 01:19:57;;;;;;;8.45;6.22;;;;;;;0.44;100.00;93505.41;2093762;28;20017;-88
2021/10/28 01:20:59;;;;;;;6.88;5.55;;;;;;;0.46;100.00;93509.25;2102208;28;20100;-89
2021/10/28 01:22:00;;;;;;;8.88;6.03;;;;;;;0.40;100.00;93513.25;2102038;28;20401;-86
2021/10/28 01:23:01;;;;;;;7.72;6.03;;;;;;;0.39;100.00;93510.94;2115258;28;20027;-89
2021/10/28 01:24:02;;;;;;;8.18;6.82;;;;;;;0.54;100.00;93506.78;2114913;28;20026;-86
2021/10/28 01:25:04;;;;;;;6.88;5.68;;;;;;;0.62;100.00;93514.50;2115083;28;20592;-84
2021/10/28 01:26:11;;;;;;;12.50;7.13;;;;;;;0.62;100.00;93503.22;2102737;28;20054;-87
2021/10/28 01:27:12;;;;;;;8.40;6.45;;;;;;;0.64;100.00;93506.25;2092078;28;20036;-85
2021/10/28 01:28:15;;;;;;;9.68;6.55;;;;;;;0.61;100.00;93506.91;2094211;28;20035;-86
2021/10/28 01:29:16;;;;;;;9.07;6.95;;;;;;;0.70;100.00;93496.97;2090743;28;20047;-86
2021/10/28 01:30:17;;;;;;;10.25;6.80;;;;;;;0.65;100.00;93499.88;2098050;28;20701;-88
2021/10/28 01:31:20;;;;;;;9.27;6.60;;;;;;;0.66;100.00;93501.38;2095102;28;20478;-87
2021/10/28 01:32:21;;;;;;;11.07;6.82;;;;;;;0.69;100.00;93508.59;2087757;28;20088;-86
2021/10/28 01:33:23;;;;;;;17.27;8.90;;;;;;;0.67;100.00;93508.19;2089886;28;20029;-85
2021/10/28 01:34:24;;;;;;;25.05;9.15;;;;;;;0.70;100.00;93499.59;2098734;28;20024;-84
2021/10/28 01:35:25;;;;;;;24.92;9.48;;;;;;;0.92;100.00;93498.97;2106549;28;20115;-85
2021/10/28 01:36:27;;;;;;;17.58;8.27;;;;;;;0.96;100.00;93499.78;2115185;28;20027;-85
2021/10/28 01:37:28;;;;;;;10.45;8.30;;;;;;;0.89;100.00;93502.28;2110811;28;20019;-87
2021/10/28 01:38:29;;;;;;;28.40;8.95;;;;;;;0.89;100.00;93493.63;2102061;28;20078;-88
2021/10/28 01:39:30;;;;;;;21.40;8.57;;;;;;;0.93;100.00;93497.84;2093922;28;20115;-86
2021/10/28 01:40:31;;;;;;;15.98;8.23;;;;;;;0.92;100.00;93498.19;2093197;28;20044;-85
2021/10/28 01:41:32;;;;;;;23.40;8.52;;;;;;;0.88;100.00;93497.34;2094535;28;20040;-88
2021/10/28 01:42:33;;;;;;;20.23;8.80;;;;;;;0.97;100.00;93500.56;2098116;28;20085;-84
2021/10/28 01:43:34;;;;;;;33.00;8.63;;;;;;;0.98;100.00;93502.84;2094137;28;20028;-83
2021/10/28 01:44:39;;;;;;;13.32;8.32;;;;;;;1.03;100.00;93498.41;2112742;28;20035;-83
2021/10/28 01:45:40;;;;;;;39.72;9.10;;;;;;;1.09;100.00;93492.50;2103179;28;20031;-84
2021/10/28 01:46:41;;;;;;;12.52;9.10;;;;;;;1.08;100.00;93495.50;2100044;28;20069;-88
2021/10/28 01:47:42;;;;;;;23.88;9.02;;;;;;;1.06;100.00;93492.47;2095756;28;20425;-85
2021/10/28 01:48:44;;;;;;;44.17;9.00;;;;;;;1.06;100.00;93492.47;2098147;28;20115;-86
2021/10/28 01:49:45;;;;;;;29.48;9.25;;;;;;;0.98;100.00;93492.31;2102236;28;20019;-90
2021/10/28 01:50:47;;;;;;;19.05;9.65;;;;;;;1.04;100.00;93487.53;2106122;28;20038;-87
2021/10/28 01:51:48;;;;;;;16.95;9.35;;;;;;;1.09;100.00;93487.25;2106240;28;20895;-89
2021/10/28 01:52:49;;;;;;;14.98;9.75;;;;;;;1.09;100.00;93497.78;2123481;27;20015;-86
2021/10/28 01:53:51;;;;;;;16.67;9.10;;;;;;;1.15;100.00;93485.88;2106241;28;20024;-83
2021/10/28 01:54:52;;;;;;;23.45;9.30;;;;;;;1.29;100.00;93498.56;2098429;28;20031;-84
2021/10/28 01:55:52;;;;;;;20.73;10.05;;;;;;;1.25;100.00;93490.59;2105022;28;20047;-86
2021/10/28 01:56:54;;;;;;;16.77;9.75;;;;;;;1.24;100.00;93493.56;2097873;28;20025;-86
2021/10/28 01:57:54;;;;;;;25.52;9.25;;;;;;;1.26;100.00;93489.47;2097981;28;20040;-88
2021/10/28 01:58:55;;;;;;;18.75;9.20;;;;;;;1.30;100.00;93486.91;2098227;28;20048;-89
2021/10/28 01:59:56;;;;;;;40.83;9.73;;;;;;;1.31;100.00;93490.31;2106455;28;20016;-88
2021/10/28 02:00:58;;;;;;;18.55;9.25;;;;;;;1.38;100.00;93485.19;2114914;28;20107;-86
2021/10/28 02:01:59;;;;;;;23.15;9.65;;;;;;;1.39;100.00;93481.44;2106070;28;20039;-88
2021/10/28 02:03:01;;;;;;;27.75;9.52;;;;;;;1.48;100.00;93493.25;2106348;28;20016;-84
2021/10/28 02:04:04;;;;;;;30.67;9.57;;;;;;;1.45;100.00;93488.72;2096719;28;20024;-85
2021/10/28 02:05:07;;;;;;;30.30;9.10;;;;;;;1.46;100.00;93479.69;2094442;28;20025;-86
2021/10/28 02:06:08;;;;;;;17.45;9.40;;;;;;;1.46;100.00;93477.06;2106563;28;20686;-88
2021/10/28 02:07:09;;;;;;;21.55;9.75;;;;;;;1.50;100.00;93479.75;2104524;28;20032;-84
2021/10/28 02:08:11;;;;;;;17.63;9.20;;;;;;;1.59;100.00;93474.28;2097859;28;20107;-86
2021/10/28 02:09:12;;;;;;;16.63;9.85;;;;;;;1.57;100.00;93484.38;2104114;28;20019;-86
2021/10/28 02:10:14;;;;;;;39.25;10.93;;;;;;;1.62;100.00;93479.59;2106326;28;20039;-87
2021/10/28 02:11:15;;;;;;;28.63;10.48;;;;;;;1.58;100.00;93476.16;2114883;28;20027;-84
2021/10/28 02:12:16;;;;;;;23.17;10.93;;;;;;;1.74;100.00;93473.41;2097909;28;20036;-86
2021/10/28 02:13:18;;;;;;;15.77;10.45;;;;;;;1.70;100.00;93467.31;2102286;28;20370;-85
2021/10/28 02:14:19;;;;;;;26.25;10.57;;;;;;;1.80;100.00;93479.91;2107636;28;20102;-87
2021/10/28 02:15:20;;;;;;;35.35;10.88;;;;;;;1.80;100.00;93473.84;2093171;28;20032;-84
2021/10/28 02:16:21;;;;;;;20.48;10.45;;;;;;;1.84;100.00;93464.91;2089473;28;20025;-87
2021/10/28 02:17:22;;;;;;;26.38;10.63;;;;;;;1.77;100.00;93476.09;2093719;28;20505;-87
2021/10/28 02:18:24;;;;;;;32.85;10.45;;;;;;;1.73;100.00;93477.16;2097829;28;20024;-89
2021/10/28 02:19:26;;;;;;;19.70;10.57;;;;;;;1.72;100.00;93475.63;2098314;28;20473;-88
2021/10/28 02:20:27;;;;;;;42.25;10.70;;;;;;;1.67;100.00;93470.66;2101469;28;20030;-85
2021/10/28 02:21:28;;;;;;;36.88;10.38;;;;;;;1.80;100.00;93473.84;2106339;28;20572;-88
2021/10/28 02:22:29;;;;;;;33.28;11.15;;;;;;;1.76;100.00;93473.81;2109563;28;20022;-88
2021/10/28 02:23:30;;;;;;;18.98;10.68;;;;;;;1.77;100.00;93470.81;2106514;28;20024;-85
2021/10/28 02:24:31;;;;;;;14.55;10.65;;;;;;;1.82;100.00;93467.13;2097685;28;20039;-88
2021/10/28 02:25:33;;;;;;;13.75;11.25;;;;;;;1.84;100.00;93470.16;2098217;28;20058;-87
2021/10/28 02:26:34;;;;;;;34.35;11.30;;;;;;;1.78;100.00;93468.94;2106218;28;20050;-88
2021/10/28 02:27:35;;;;;;;27.13;10.85;;;;;;;1.85;100.00;93476.22;2114724;28;20472;-85
2021/10/28 02:28:37;;;;;;;18.00;10.73;;;;;;;1.86;100.00;93469.84;2111182;28;20032;-86
2021/10/28 02:29:38;;;;;;;34.53;11.48;;;;;;;1.85;100.00;93465.69;2095423;28;20069;-86
2021/10/28 02:30:39;;;;;;;34.53;11.23;;;;;;;1.87;100.00;93474.75;2088485;28;20037;-86
2021/10/28 02:31:43;;;;;;;14.77;11.02;;;;;;;1.92;100.00;93482.34;2095176;28;20028;-89
2021/10/28 02:32:46;;;;;;;14.20;10.95;;;;;;;1.95;100.00;93471.13;2101902;28;20089;-87
2021/10/28 02:33:46;;;;;;;17.77;11.27;;;;;;;2.01;100.00;93476.84;2106536;28;20077;-89
2021/10/28 02:34:48;;;;;;;21.98;11.90;;;;;;;2.06;100.00;93470.53;2097456;28;20040;-87
2021/10/28 02:35:49;;;;;;;13.95;10.45;;;;;;;2.05;100.00;93474.28;2089721;28;20074;-88
2021/10/28 02:36:50;;;;;;;20.38;11.18;;;;;;;2.17;100.00;93468.81;2097891;28;20016;-87
2021/10/28 02:37:51;;;;;;;17.35;10.98;;;;;;;2.13;100.00;93466.13;2106259;28;20020;-85
2021/10/28 02:38:52;;;;;;;22.65;11.10;;;;;;;2.20;100.00;93473.41;2100636;28;20032;-86
2021/10/28 02:39:53;;;;;;;17.95;11.18;;;;;;;2.29;100.00;93476.56;2089744;28;20074;-86
2021/10/28 02:40:54;;;;;;;34.15;12.48;;;;;;;2.34;100.00;93470.22;2106168;28;20027;-89
2021/10/28 02:41:56;;;;;;;26.58;12.95;;;;;;;2.44;100.00;93462.44;2106188;28;20127;-85
2021/10/28 02:42:57;;;;;;;16.13;12.38;;;;;;;2.35;100.00;93461.94;2105885;28;20032;-87
2021/10/28 02:43:58;;;;;;;17.27;11.45;;;;;;;2.44;100.00;93461.69;2098018;28;20053;-87
2021/10/28 02:44:59;;;;;;;20.42;11.38;;;;;;;2.50;100.00;93457.63;2092073;28;20033;-86
2021/10/28 02:46:00;;;;;;;14.65;11.68;;;;;;;2.45;100.00;93461.31;2097359;28;20492;-88
2021/10/28 02:47:02;;;;;;;16.88;11.80;;;;;;;2.46;100.00;93462.09;2083853;28;20032;-87
2021/10/28 02:48:04;;;;;;;16.70;11.73;;;;;;;2.65;100.00;93455.94;2090938;28;20028;-86
2021/10/28 02:49:05;;;;;;;15.57;12.25;;;;;;;2.54;100.00;93453.16;2106201;28;20016;-87
2021/10/28 02:50:06;;;;;;;24.00;12.93;;;;;;;2.49;100.00;93456.09;2112971;28;20016;-86
2021/10/28 02:51:07;;;;;;;19.65;12.13;;;;;;;2.43;100.00;93455.66;2100281;28;20031;-86
2021/10/28 02:52:08;;;;;;;24.08;13.20;;;;;;;2.48;100.00;93457.97;2106212;28;20073;-89
2021/10/28 02:53:09;;;;;;;32.63;14.23;;;;;;;2.46;100.00;93457.59;2097708;28;20020;-88
2021/10/28 02:54:10;;;;;;;26.67;13.73;;;;;;;2.46;100.00;93460.22;2097544;28;20052;-84
2021/10/28 02:55:11;;;;;;;23.45;13.18;;;;;;;2.53;100.00;93454.28;2105268;28;20081;-85
2021/10/28 02:56:13;;;;;;;24.10;13.73;;;;;;;2.57;100.00;93452.44;2122993;28;20023;-89
2021/10/28 02:57:14;;;;;;;20.90;13.85;;;;;;;2.56;100.00;93450.19;2114309;28;20051;-85
2021/10/28 02:58:15;;;;;;;29.40;14.07;;;;;;;2.53;100.00;93455.03;2097681;28;20102;-87
2021/10/28 02:59:16;;;;;;;23.45;13.65;;;;;;;2.60;100.00;93453.63;2105925;28;20020;-86
2021/10/28 03:00:17;;;;;;;19.40;13.98;;;;;;;2.59;100.00;93450.22;2106188;28;20028;-85
2021/10/28 03:01:18;;;;;;;21.95;13.00;;;;;;;2.62;100.00;93451.38;2097807;28;20032;-85
2021/10/28 03:02:19;;;;;;;22.50;13.25;;;;;;;2.59;100.00;93449.44;2097998;28;20107;-86
2021/10/28 03:03:20;;;;;;;24.30;13.27;;;;;;;2.54;100.00;93447.88;2099192;28;20024;-86
2021/10/28 03:04:24;;;;;;;19.35;12.98;;;;;;;2.54;100.00;93445.25;2099409;28;20023;-87
2021/10/28 03:05:25;;;;;;;25.60;13.23;;;;;;;2.63;100.00;93444.97;2111655;28;20373;-87
2021/10/28 03:06:26;;;;;;;23.33;13.60;;;;;;;2.74;100.00;93438.72;2107722;28;20480;-86
2021/10/28 03:07:27;;;;;;;22.77;15.18;;;;;;;2.74;100.00;93444.00;2099043;28;20095;-88
2021/10/28 03:08:29;;;;;;;25.48;14.82;;;;;;;2.69;100.00;93439.06;2095527;28;20040;-85
2021/10/28 03:09:31;;;;;;;19.70;14.07;;;;;;;2.78;100.00;93444.81;2105250;27;20029;-85
2021/10/28 03:10:32;;;;;;;19.60;13.75;;;;;;;2.72;100.00;93438.34;2116013;28;20020;-89
2021/10/28 03:11:34;;;;;;;22.20;14.05;;;;;;;2.81;100.00;93439.94;2107701;28;20024;-87
2021/10/28 03:12:37;;;;;;;24.98;14.95;;;;;;;2.71;100.00;93443.97;2107604;28;20027;-85
2021/10/28 03:13:38;;;;;;;21.77;14.80;;;;;;;2.76;100.00;93436.47;2097410;28;20036;-84
2021/10/28 03:15:14;;;;;;;24.50;15.40;;;;;;;2.73;100.00;93437.22;2110261;28;20082;-90
2021/10/28 03:16:32;;;;;;;35.25;15.48;;;;;;;2.80;100.00;93438.41;2121399;27;20035;-86
2021/10/28 03:26:15;;;;;;;21.33;15.60;;;;;;;3.08;100.00;93435.38;2122438;27;20447;-88
2021/10/28 03:27:16;;;;;;;29.33;17.00;;;;;;;3.15;100.00;93430.91;2125123;27;20023;-88
2021/10/28 03:28:20;;;;;;;27.98;17.20;;;;;;;3.15;100.00;93430.16;2125004;27;20015;-89
2021/10/28 03:29:20;;;;;;;26.95;17.02;;;;;;;3.18;100.00;93430.19;2125218;27;20019;-85
2021/10/28 03:30:21;;;;;;;34.53;17.85;;;;;;;3.30;100.00;93431.09;2110492;28;20024;-88
2021/10/28 03:31:22;;;;;;;33.60;18.02;;;;;;;3.51;100.00;93433.94;2094277;28;20025;-86
2021/10/28 03:32:25;;;;;;;32.42;18.25;;;;;;;3.42;100.00;93428.94;2100348;28;20518;-89
2021/10/28 03:33:26;;;;;;;27.02;17.40;;;;;;;3.41;100.00;93421.38;2119966;27;20024;-87
2021/10/28 03:34:27;;;;;;;39.05;19.27;;;;;;;3.40;100.00;93433.84;2120765;27;20104;-87
2021/10/28 03:35:28;;;;;;;30.55;19.10;;;;;;;3.43;100.00;93435.00;2111355;28;20031;-87
2021/10/28 03:46:17;;;;;;;27.75;17.80;;;;;;;3.67;100.00;93431.81;2082426;28;20026;-86
2021/10/28 03:47:43;;;;;;;27.40;18.05;;;;;;;3.69;100.00;93434.88;2082273;28;20022;-87
2021/10/28 04:21:35;;;;;;;35.00;22.50;;;;;;;4.16;100.00;93411.44;2103313;27;20039;-83
2021/10/28 04:29:56;;;;;;;33.58;22.52;;;;;;;4.26;100.00;93403.59;2129474;27;20022;-87
2021/10/28 04:30:57;;;;;;;31.27;21.95;;;;;;;4.28;100.00;93406.63;2109118;28;20522;-86
2021/10/28 04:31:59;;;;;;;32.28;21.83;;;;;;;4.25;100.00;93407.34;2103216;28;20384;-85
2021/10/28 04:33:00;;;;;;;33.70;21.27;;;;;;;4.37;100.00;93408.94;2115393;28;20047;-85
2021/10/28 04:34:06;;;;;;;30.77;21.33;;;;;;;4.33;100.00;93410.06;2098751;28;20032;-88
2021/10/28 04:35:09;;;;;;;34.05;21.85;;;;;;;4.23;100.00;93404.31;2107183;28;20073;-88
2021/10/28 04:36:11;;;;;;;31.80;21.92;;;;;;;4.28;100.00;93405.88;2111974;28;20055;-89
2021/10/28 04:37:12;;;;;;;29.70;20.75;;;;;;;4.25;100.00;93406.59;2105628;28;20488;-85
2021/10/28 04:38:13;;;;;;;31.60;21.77;;;;;;;4.24;100.00;93402.44;2111158;27;20031;-84
2021/10/28 04:39:14;;;;;;;31.13;20.45;;;;;;;4.17;100.00;93410.31;2100171;28;20040;-88
2021/10/28 04:40:15;;;;;;;32.00;21.63;;;;;;;4.26;100.00;93410.78;2101260;28;20048;-86
2021/10/28 04:41:16;;;;;;;29.88;21.25;;;;;;;4.27;100.00;93407.00;2117721;27;20027;-86
2021/10/28 04:42:17;;;;;;;31.40;20.90;;;;;;;4.28;100.00;93408.50;2117039;27;20024;-84
2021/10/28 04:43:19;;;;;;;34.25;21.73;;;;;;;4.38;100.00;93404.41;2123835;27;20027;-87
2021/10/28 04:44:20;;;;;;;28.55;21.08;;;;;;;4.41;100.00;93409.72;2106406;28;20028;-88
2021/10/28 04:45:21;;;;;;;28.92;21.60;;;;;;;4.28;100.00;93408.50;2107007;28;20028;-86
2021/10/28 04:46:22;;;;;;;28.90;20.30;;;;;;;4.24;100.00;93407.72;2114370;28;20111;-88
2021/10/28 04:47:23;;;;;;;33.10;19.58;;;;;;;4.22;100.00;93402.06;2114759;28;20027;-85
2021/10/28 04:48:24;;;;;;;34.22;21.65;;;;;;;4.17;100.00;93408.44;2118890;27;20023;-89
2021/10/28 04:49:25;;;;;;;31.48;19.90;;;;;;;4.52;100.00;93396.56;2123325;27;20394;-84
2021/10/28 04:50:26;;;;;;;31.20;21.05;;;;;;;4.57;100.00;93401.50;2114231;28;20482;-88
2021/10/28 04:51:27;;;;;;;30.33;19.27;;;;;;;4.62;100.00;93408.34;2110578;28;20075;-89
2021/10/28 04:52:28;;;;;;;30.95;21.92;;;;;;;4.43;100.00;93404.06;2109914;28;20020;-86
2021/10/28 04:53:29;;;;;;;28.17;20.05;;;;;;;4.53;100.00;93398.09;2106691;28;20070;-85
2021/10/28 04:54:30;;;;;;;34.28;19.80;;;;;;;4.43;100.00;93404.81;2114365;28;20032;-84
2021/10/28 04:55:31;;;;;;;26.15;19.65;;;;;;;4.36;100.00;93410.09;2101900;28;20029;-89
2021/10/28 04:56:32;;;;;;;29.42;20.10;;;;;;;4.41;100.00;93403.69;2111241;28;20047;-88
2021/10/28 04:57:34;;;;;;;28.88;20.45;;;;;;;4.41;100.00;93408.97;2119162;27;20057;-87
2021/10/28 04:58:35;;;;;;;37.60;21.00;;;;;;;4.39;100.00;93408.56;2106298;28;20626;-83
2021/10/28 04:59:36;;;;;;;29.65;20.00;;;;;;;4.43;100.00;93404.81;2109699;28;20024;-85
2021/10/28 05:00:37;;;;;;;26.77;19.40;;;;;;;4.48;100.00;93407.13;2120062;27;20057;-88
2021/10/28 05:01:38;;;;;;;31.17;18.27;;;;;;;4.46;100.00;93408.63;2113540;28;20028;-86
2021/10/28 05:02:39;;;;;;;35.05;19.60;;;;;;;4.33;100.00;93405.50;2095409;28;20680;-88
2021/10/28 05:03:40;;;;;;;29.30;20.02;;;;;;;4.41;100.00;93401.03;2106651;28;20812;-90
2021/10/28 05:04:41;;;;;;;26.70;19.90;;;;;;;4.47;100.00;93410.13;2114404;28;20171;-87
2021/10/28 05:05:42;;;;;;;29.33;19.45;;;;;;;4.57;100.00;93404.16;2106696;28;20020;-88
2021/10/28 05:06:44;;;;;;;26.02;19.90;;;;;;;4.42;100.00;93408.59;2103478;28;20028;-86
2021/10/28 05:07:45;;;;;;;32.63;19.13;;;;;;;4.37;100.00;93406.31;2108269;28;20123;-86
2021/10/28 05:08:47;;;;;;;25.70;18.70;;;;;;;4.34;100.00;93406.28;2101281;28;20044;-86
2021/10/28 05:09:48;;;;;;;41.78;19.38;;;;;;;4.24;100.00;93408.47;2106473;28;20056;-84
2021/10/28 05:10:49;;;;;;;36.70;20.10;;;;;;;4.42;100.00;93413.13;2105775;28;20031;-86
2021/10/28 05:11:50;;;;;;;27.73;19.80;;;;;;;4.30;100.00;93411.53;2099590;28;20029;-85
2021/10/28 05:12:51;;;;;;;29.17;18.85;;;;;;;4.23;100.00;93411.50;2113424;28;20032;-87
2021/10/28 05:13:52;;;;;;;38.33;17.95;;;;;;;4.27;100.00;93409.66;2122234;27;20098;-87
2021/10/28 05:14:53;;;;;;;27.50;18.70;;;;;;;4.27;100.00;93407.75;2114731;27;20055;-85
2021/10/28 05:15:54;;;;;;;25.33;18.60;;;;;;;4.48;100.00;93412.44;2106454;28;20039;-87
2021/10/28 05:16:57;;;;;;;29.88;19.15;;;;;;;4.73;100.00;93404.59;2106172;28;20396;-83
2021/10/28 05:17:58;;;;;;;28.75;19.98;;;;;;;4.54;100.00;93403.00;2115162;28;20551;-84
2021/10/28 05:18:59;;;;;;;25.85;18.80;;;;;;;4.62;100.00;93395.88;2109420;28;20182;-84
2021/10/28 05:20:00;;;;;;;38.90;18.58;;;;;;;4.70;100.00;93407.25;2110675;27;20024;-84
2021/10/28 05:21:03;;;;;;;42.10;18.75;;;;;;;4.53;100.00;93398.09;2111810;28;21026;-86
2021/10/28 05:22:08;;;;;;;30.60;18.98;;;;;;;4.50;100.00;93399.56;2115199;27;20016;-86
2021/10/28 05:23:10;;;;;;;28.88;19.15;;;;;;;4.59;100.00;93401.13;2110209;28;20501;-85
2021/10/28 05:24:11;;;;;;;35.55;18.58;;;;;;;4.43;100.00;93409.34;2115130;28;20104;-84
2021/10/28 05:25:12;;;;;;;31.80;19.58;;;;;;;4.40;100.00;93402.16;2114592;28;20015;-86
2021/10/28 05:26:14;;;;;;;31.20;19.00;;;;;;;4.51;100.00;93406.38;2113872;28;20178;-87
2021/10/28 05:27:15;;;;;;;38.22;18.88;;;;;;;4.40;100.00;93397.63;2106246;28;20096;-85
2021/10/28 05:28:17;;;;;;;26.45;18.58;;;;;;;4.48;100.00;93395.78;2106556;28;20023;-87
2021/10/28 05:29:17;;;;;;;25.00;19.08;;;;;;;4.36;100.00;93396.84;2114842;28;20523;-82
2021/10/28 05:30:19;;;;;;;22.30;18.23;;;;;;;4.33;100.00;93404.75;2120391;27;20106;-84
2021/10/28 05:31:21;;;;;;;23.63;18.13;;;;;;;4.41;100.00;93401.78;2115027;28;20408;-85
2021/10/28 05:32:23;;;;;;;25.42;19.70;;;;;;;4.32;100.00;93396.06;2098213;28;20056;-88
2021/10/28 05:33:24;;;;;;;27.40;19.30;;;;;;;4.28;100.00;93403.22;2101264;28;20847;-87
2021/10/28 05:34:25;;;;;;;29.95;18.55;;;;;;;4.44;100.00;93405.59;2105961;28;20031;-86
2021/10/28 05:35:27;;;;;;;30.13;18.88;;;;;;;4.56;100.00;93405.28;2101375;28;20110;-86
2021/10/28 05:36:28;;;;;;;34.45;18.05;;;;;;;4.47;100.00;93408.25;2110539;27;20078;-89
2021/10/28 05:37:29;;;;;;;22.73;17.42;;;;;;;4.43;100.00;93404.81;2123040;27;20034;-84
2021/10/28 05:38:30;;;;;;;24.70;18.35;;;;;;;4.36;100.00;93401.38;2115892;27;20039;-83
2021/10/28 05:39:31;;;;;;;25.80;17.92;;;;;;;4.43;100.00;93404.81;2116666;28;20114;-84
2021/10/28 05:40:32;;;;;;;30.55;18.17;;;;;;;4.27;100.00;93397.19;2109354;28;20028;-84
2021/10/28 05:41:33;;;;;;;40.92;18.27;;;;;;;4.33;100.00;93402.13;2110838;28;20047;-85
2021/10/28 05:42:35;;;;;;;32.97;18.58;;;;;;;4.43;100.00;93404.06;2106071;28;20020;-86
2021/10/28 05:43:36;;;;;;;26.15;17.85;;;;;;;4.40;100.00;93408.22;2108597;28;20137;-89
2021/10/28 05:44:37;;;;;;;31.35;18.35;;;;;;;4.34;100.00;93411.56;2114563;28;20467;-85
2021/10/28 05:45:38;;;;;;;26.58;18.85;;;;;;;4.55;100.00;93401.13;2122957;27;20042;-89
2021/10/28 05:46:39;;;;;;;24.58;17.95;;;;;;;4.52;100.00;93399.19;2130273;27;20022;-84
2021/10/28 05:47:40;;;;;;;28.70;18.33;;;;;;;4.41;100.00;93401.78;2119678;27;20051;-85
2021/10/28 05:48:41;;;;;;;28.08;17.90;;;;;;;4.42;100.00;93408.59;2114689;28;20026;-90
2021/10/28 05:49:42;;;;;;;26.40;18.25;;;;;;;4.40;100.00;93408.22;2109102;28;20187;-88
2021/10/28 05:50:46;;;;;;;32.05;18.00;;;;;;;4.44;100.00;93406.34;2097816;28;20099;-84
2021/10/28 05:51:48;;;;;;;28.15;17.73;;;;;;;4.50;100.00;93415.44;2101201;28;20024;-87
2021/10/28 05:52:51;;;;;;;25.58;17.63;;;;;;;4.28;100.00;93408.50;2114390;28;20031;-87
2021/10/28 05:53:52;;;;;;;27.23;16.95;;;;;;;4.24;100.00;93411.13;2099191;28;21228;-83
2021/10/28 05:54:53;;;;;;;25.30;16.58;;;;;;;4.23;100.00;93412.25;2114354;27;20034;-86
2021/10/28 05:55:54;;;;;;;36.22;18.02;;;;;;;4.29;100.00;93410.03;2113306;28;20073;-86
2021/10/28 05:56:55;;;;;;;23.95;17.73;;;;;;;4.43;100.00;93407.47;2097907;28;20027;-83
2021/10/28 05:57:56;;;;;;;33.17;17.30;;;;;;;4.27;100.00;93412.28;2103253;28;20498;-87